sensor_id;sensor_type;location;lat;lon;timestamp;pressure;altitude;pressure_sealevel;temperature;humidity
11676;BME280;5894;42.768;23.404;2023-05-21T00:00:56;95512.75;;;15.01;100.00
11676;BME280;5894;42.768;23.404;2023-05-21T00:03:23;95516.53;;;15.00;100.00
11676;BME280;5894;42.768;23.404;2023-05-21T00:05:52;95510.56;;;15.03;100.00
11676;BME280;5894;42.768;23.404;2023-05-21T00:08:21;95471.13;;;14.81;100.00
11676;BME280;5894;42.768;23.404;2023-05-21T00:10:48;95502.47;;;14.99;100.00
11676;BME280;5894;42.768;23.404;2023-05-21T00:13:15;95503.56;;;14.98;100.00
11676;BME280;5894;42.768;23.404;2023-05-21T00:15:42;95500.59;;;15.00;100.00
11676;BME280;5894;42.768;23.404;2023-05-21T00:18:10;95501.47;;;15.04;100.00
11676;BME280;5894;42.768;23.404;2023-05-21T00:20:37;95497.50;;;15.10;100.00
11676;BME280;5894;42.768;23.404;2023-05-21T00:23:06;95493.72;;;15.11;100.00
11676;BME280;5894;42.768;23.404;2023-05-21T00:25:34;95483.00;;;15.07;100.00
11676;BME280;5894;42.768;23.404;2023-05-21T00:28:01;95490.50;;;15.05;100.00
11676;BME280;5894;42.768;23.404;2023-05-21T00:30:29;95482.13;;;15.03;100.00
11676;BME280;5894;42.768;23.404;2023-05-21T00:32:56;95482.44;;;15.02;100.00
11676;BME280;5894;42.768;23.404;2023-05-21T00:35:27;95488.22;;;15.04;100.00
11676;BME280;5894;42.768;23.404;2023-05-21T00:37:54;95477.34;;;14.97;100.00
11676;BME280;5894;42.768;23.404;2023-05-21T00:40:21;95483.31;;;15.06;100.00
11676;BME280;5894;42.768;23.404;2023-05-21T00:42:50;95478.00;;;15.06;100.00
11676;BME280;5894;42.768;23.404;2023-05-21T00:45:18;95478.78;;;15.06;100.00
11676;BME280;5894;42.768;23.404;2023-05-21T00:47:45;95461.72;;;14.95;100.00
11676;BME280;5894;42.768;23.404;2023-05-21T00:50:13;95470.94;;;14.98;100.00
11676;BME280;5894;42.768;23.404;2023-05-21T00:52:42;95458.97;;;14.92;100.00
11676;BME280;5894;42.768;23.404;2023-05-21T00:55:10;95478.44;;;14.96;100.00
11676;BME280;5894;42.768;23.404;2023-05-21T00:57:38;95474.13;;;14.91;100.00
11676;BME280;5894;42.768;23.404;2023-05-21T01:00:09;95471.03;;;14.89;100.00
11676;BME280;5894;42.768;23.404;2023-05-21T01:02:37;95467.94;;;14.87;100.00
11676;BME280;5894;42.768;23.404;2023-05-21T01:05:06;95453.97;;;14.78;100.00
11676;BME280;5894;42.768;23.404;2023-05-21T01:07:33;95471.03;;;14.89;100.00
11676;BME280;5894;42.768;23.404;2023-05-21T01:10:02;95470.25;;;14.89;100.00
11676;BME280;5894;42.768;23.404;2023-05-21T01:12:30;95468.06;;;14.91;100.00
11676;BME280;5894;42.768;23.404;2023-05-21T01:14:59;95467.50;;;14.97;100.00
11676;BME280;5894;42.768;23.404;2023-05-21T01:17:29;95410.38;;;14.67;100.00
11676;BME280;5894;42.768;23.404;2023-05-21T01:19:57;95464.31;;;15.04;100.00
11676;BME280;5894;42.768;23.404;2023-05-21T01:22:25;95453.56;;;15.00;100.00
11676;BME280;5894;42.768;23.404;2023-05-21T01:24:56;95472.69;;;15.18;100.00
11676;BME280;5894;42.768;23.404;2023-05-21T01:27:23;95476.81;;;15.16;100.00
11676;BME280;5894;42.768;23.404;2023-05-21T01:29:50;95470.59;;;15.12;100.00
11676;BME280;5894;42.768;23.404;2023-05-21T01:32:23;95472.69;;;15.06;100.00
11676;BME280;5894;42.768;23.404;2023-05-21T01:34:56;95467.50;;;15.10;100.00
11676;BME280;5894;42.768;23.404;2023-05-21T01:37:45;95428.09;;;14.75;100.00
11676;BME280;5894;42.768;23.404;2023-05-21T01:40:20;95473.06;;;15.04;100.00
11676;BME280;5894;42.768;23.404;2023-05-21T01:42:49;95451.88;;;14.96;100.00
11676;BME280;5894;42.768;23.404;2023-05-21T01:45:17;95462.88;;;14.94;100.00
11676;BME280;5894;42.768;23.404;2023-05-21T01:47:46;95457.97;;;15.09;100.00
11676;BME280;5894;42.768;23.404;2023-05-21T01:50:16;95455.66;;;15.07;100.00
11676;BME280;5894;42.768;23.404;2023-05-21T01:52:51;95455.66;;;15.07;100.00
11676;BME280;5894;42.768;23.404;2023-05-21T01:55:20;95460.97;;;15.07;100.00
11676;BME280;5894;42.768;23.404;2023-05-21T01:57:50;95451.13;;;15.07;100.00
11676;BME280;5894;42.768;23.404;2023-05-21T02:00:18;95446.38;;;15.01;100.00
11676;BME280;5894;42.768;23.404;2023-05-21T02:02:45;95448.47;;;14.83;100.00
11676;BME280;5894;42.768;23.404;2023-05-21T02:05:13;95443.22;;;14.75;100.00
11676;BME280;5894;42.768;23.404;2023-05-21T02:07:40;95446.59;;;14.84;100.00
11676;BME280;5894;42.768;23.404;2023-05-21T02:10:08;95443.69;;;14.77;100.00
11676;BME280;5894;42.768;23.404;2023-05-21T02:12:37;95437.59;;;14.76;100.00
11676;BME280;5894;42.768;23.404;2023-05-21T02:15:06;95433.84;;;14.77;100.00
11676;BME280;5894;42.768;23.404;2023-05-21T02:17:33;95429.88;;;14.71;100.00
11676;BME280;5894;42.768;23.404;2023-05-21T02:20:00;95423.47;;;14.72;100.00
11676;BME280;5894;42.768;23.404;2023-05-21T02:22:36;95436.06;;;14.63;100.00
11676;BME280;5894;42.768;23.404;2023-05-21T02:25:04;95425.19;;;14.56;100.00
11676;BME280;5894;42.768;23.404;2023-05-21T02:27:32;95429.41;;;14.57;100.00
11676;BME280;5894;42.768;23.404;2023-05-21T02:30:01;95435.25;;;14.50;100.00
11676;BME280;5894;42.768;23.404;2023-05-21T02:32:28;95440.88;;;14.49;100.00
11676;BME280;5894;42.768;23.404;2023-05-21T02:34:56;95446.13;;;14.37;100.00
11676;BME280;5894;42.768;23.404;2023-05-21T02:37:24;95441.59;;;14.37;100.00
11676;BME280;5894;42.768;23.404;2023-05-21T02:39:52;95386.22;;;13.90;100.00
11676;BME280;5894;42.768;23.404;2023-05-21T02:42:20;95404.47;;;14.04;100.00
11676;BME280;5894;42.768;23.404;2023-05-21T02:44:47;95438.25;;;14.28;100.00
11676;BME280;5894;42.768;23.404;2023-05-21T02:47:16;95444.19;;;14.25;100.00
11676;BME280;5894;42.768;23.404;2023-05-21T02:49:43;95437.03;;;14.25;100.00
11676;BME280;5894;42.768;23.404;2023-05-21T02:52:10;95440.81;;;14.37;100.00
11676;BME280;5894;42.768;23.404;2023-05-21T02:54:38;95437.38;;;14.36;100.00
11676;BME280;5894;42.768;23.404;2023-05-21T02:57:05;95436.78;;;14.39;100.00
11676;BME280;5894;42.768;23.404;2023-05-21T02:59:32;95434.56;;;14.41;100.00
11676;BME280;5894;42.768;23.404;2023-05-21T03:01:59;95428.25;;;14.46;100.00
11676;BME280;5894;42.768;23.404;2023-05-21T03:04:28;95419.59;;;14.37;100.00
11676;BME280;5894;42.768;23.404;2023-05-21T03:06:55;95434.47;;;14.50;100.00
11676;BME280;5894;42.768;23.404;2023-05-21T03:09:23;95432.59;;;14.50;100.00
11676;BME280;5894;42.768;23.404;2023-05-21T03:11:50;95428.38;;;14.49;100.00
11676;BME280;5894;42.768;23.404;2023-05-21T03:14:17;95427.94;;;14.47;100.00
11676;BME280;5894;42.768;23.404;2023-05-21T03:16:44;95435.13;;;14.47;100.00
11676;BME280;5894;42.768;23.404;2023-05-21T03:19:12;95429.25;;;14.41;100.00
11676;BME280;5894;42.768;23.404;2023-05-21T03:21:40;95431.47;;;14.39;100.00
11676;BME280;5894;42.768;23.404;2023-05-21T03:24:07;95434.56;;;14.41;100.00
11676;BME280;5894;42.768;23.404;2023-05-21T03:26:35;95435.66;;;14.40;100.00
11676;BME280;5894;42.768;23.404;2023-05-21T03:29:02;95434.25;;;14.43;100.00
11676;BME280;5894;42.768;23.404;2023-05-21T03:31:30;95438.00;;;14.42;100.00
11676;BME280;5894;42.768;23.404;2023-05-21T03:34:09;95440.75;;;14.45;100.00
11676;BME280;5894;42.768;23.404;2023-05-21T03:36:36;95441.97;;;14.48;100.00
11676;BME280;5894;42.768;23.404;2023-05-21T03:39:05;95436.81;;;14.51;100.00
11676;BME280;5894;42.768;23.404;2023-05-21T03:41:33;95441.44;;;14.54;100.00
11676;BME280;5894;42.768;23.404;2023-05-21T03:44:07;95449.63;;;14.49;100.00
11676;BME280;5894;42.768;23.404;2023-05-21T03:46:45;95441.91;;;14.36;100.00
11676;BME280;5894;42.768;23.404;2023-05-21T03:49:19;95425.44;;;14.30;100.00
11676;BME280;5894;42.768;23.404;2023-05-21T03:51:49;95439.78;;;14.50;100.00
11676;BME280;5894;42.768;23.404;2023-05-21T03:54:20;95442.88;;;14.52;100.00
11676;BME280;5894;42.768;23.404;2023-05-21T03:56:48;95439.47;;;14.51;100.00
11676;BME280;5894;42.768;23.404;2023-05-21T03:59:16;95433.81;;;14.53;100.00
11676;BME280;5894;42.768;23.404;2023-05-21T04:01:44;95441.84;;;14.44;100.00
11676;BME280;5894;42.768;23.404;2023-05-21T04:04:14;95440.09;;;14.48;100.00
11676;BME280;5894;42.768;23.404;2023-05-21T04:06:41;95428.84;;;14.51;100.00
11676;BME280;5894;42.768;23.404;2023-05-21T04:09:10;95438.13;;;14.57;100.00
11676;BME280;5894;42.768;23.404;2023-05-21T04:11:39;95439.91;;;14.53;100.00
11676;BME280;5894;42.768;23.404;2023-05-21T04:14:06;95444.44;;;14.53;100.00
11676;BME280;5894;42.768;23.404;2023-05-21T04:16:33;95440.56;;;14.50;100.00
11676;BME280;5894;42.768;23.404;2023-05-21T04:19:03;95441.44;;;14.54;100.00
11676;BME280;5894;42.768;23.404;2023-05-21T04:21:30;95449.41;;;14.54;100.00
11676;BME280;5894;42.768;23.404;2023-05-21T04:23:57;95448.09;;;14.60;100.00
11676;BME280;5894;42.768;23.404;2023-05-21T04:26:56;95453.09;;;14.62;100.00
11676;BME280;5894;42.768;23.404;2023-05-21T04:29:28;95446.66;;;14.63;100.00
11676;BME280;5894;42.768;23.404;2023-05-21T04:31:55;95452.53;;;14.68;100.00
11676;BME280;5894;42.768;23.404;2023-05-21T04:34:22;95449.78;;;14.77;100.00
11676;BME280;5894;42.768;23.404;2023-05-21T04:36:50;95449.00;;;14.77;100.00
11676;BME280;5894;42.768;23.404;2023-05-21T04:39:18;95449.56;;;14.82;100.00
11676;BME280;5894;42.768;23.404;2023-05-21T04:41:45;95450.44;;;14.86;100.00
11676;BME280;5894;42.768;23.404;2023-05-21T04:44:15;95447.91;;;14.90;100.00
11676;BME280;5894;42.768;23.404;2023-05-21T04:46:44;95455.22;;;14.93;100.00
11676;BME280;5894;42.768;23.404;2023-05-21T04:49:11;95464.28;;;14.92;100.00
11676;BME280;5894;42.768;23.404;2023-05-21T04:51:38;95459.75;;;14.92;100.00
11676;BME280;5894;42.768;23.404;2023-05-21T04:54:06;95461.06;;;14.98;100.00
11676;BME280;5894;42.768;23.404;2023-05-21T04:56:34;95468.59;;;14.96;100.00
11676;BME280;5894;42.768;23.404;2023-05-21T04:59:01;95457.56;;;14.94;100.00
11676;BME280;5894;42.768;23.404;2023-05-21T05:01:30;95451.00;;;14.92;100.00
11676;BME280;5894;42.768;23.404;2023-05-21T05:03:57;95451.13;;;14.83;100.00
11676;BME280;5894;42.768;23.404;2023-05-21T05:06:24;95446.59;;;14.84;100.00
11676;BME280;5894;42.768;23.404;2023-05-21T05:08:51;95453.56;;;14.88;100.00
11676;BME280;5894;42.768;23.404;2023-05-21T05:11:19;95457.31;;;14.87;100.00
11676;BME280;5894;42.768;23.404;2023-05-21T05:13:47;95456.53;;;14.87;100.00
11676;BME280;5894;42.768;23.404;2023-05-21T05:16:14;95441.47;;;14.79;100.00
11676;BME280;5894;42.768;23.404;2023-05-21T05:18:44;95447.78;;;14.86;100.00
11676;BME280;5894;42.768;23.404;2023-05-21T05:21:11;95458.75;;;14.97;100.00
11676;BME280;5894;42.768;23.404;2023-05-21T05:23:38;95451.03;;;15.04;100.00
11676;BME280;5894;42.768;23.404;2023-05-21T05:26:07;95450.25;;;15.16;100.00
11676;BME280;5894;42.768;23.404;2023-05-21T05:28:34;95446.13;;;15.30;100.00
11676;BME280;5894;42.768;23.404;2023-05-21T05:31:01;95391.81;;;15.03;100.00
11676;BME280;5894;42.768;23.404;2023-05-21T05:33:28;95448.66;;;15.39;100.00
11676;BME280;5894;42.768;23.404;2023-05-21T05:35:57;95451.56;;;15.46;100.00
11676;BME280;5894;42.768;23.404;2023-05-21T05:38:24;95449.88;;;15.54;100.00
11676;BME280;5894;42.768;23.404;2023-05-21T05:40:51;95449.44;;;15.64;100.00
11676;BME280;5894;42.768;23.404;2023-05-21T05:43:19;95453.84;;;15.72;100.00
11676;BME280;5894;42.768;23.404;2023-05-21T05:45:47;95451.06;;;15.81;100.00
11676;BME280;5894;42.768;23.404;2023-05-21T05:48:15;95448.25;;;15.89;100.00
11676;BME280;5894;42.768;23.404;2023-05-21T05:50:43;95439.81;;;15.99;100.00
11676;BME280;5894;42.768;23.404;2023-05-21T05:53:12;95447.56;;;16.04;100.00
11676;BME280;5894;42.768;23.404;2023-05-21T05:55:39;95463.38;;;16.13;100.00
11676;BME280;5894;42.768;23.404;2023-05-21T05:58:07;95445.69;;;16.21;100.00
11676;BME280;5894;42.768;23.404;2023-05-21T06:00:47;95437.72;;;16.21;100.00
11676;BME280;5894;42.768;23.404;2023-05-21T06:03:14;95452.63;;;16.37;100.00
11676;BME280;5894;42.768;23.404;2023-05-21T06:05:43;95439.22;;;16.34;100.00
11676;BME280;5894;42.768;23.404;2023-05-21T06:08:12;95444.22;;;16.51;100.00
11676;BME280;5894;42.768;23.404;2023-05-21T06:10:39;95441.06;;;16.61;100.00
11676;BME280;5894;42.768;23.404;2023-05-21T06:13:06;95433.38;;;16.72;100.00
11676;BME280;5894;42.768;23.404;2023-05-21T06:15:33;95429.25;;;16.74;100.00
11676;BME280;5894;42.768;23.404;2023-05-21T06:18:00;95432.44;;;16.80;100.00
11676;BME280;5894;42.768;23.404;2023-05-21T06:20:28;95430.19;;;16.82;100.00
11676;BME280;5894;42.768;23.404;2023-05-21T06:22:56;95426.25;;;16.92;100.00
11676;BME280;5894;42.768;23.404;2023-05-21T06:25:24;95428.03;;;17.03;100.00
11676;BME280;5894;42.768;23.404;2023-05-21T06:27:51;95430.88;;;17.10;100.00
11676;BME280;5894;42.768;23.404;2023-05-21T06:30:24;95425.38;;;17.19;100.00
11676;BME280;5894;42.768;23.404;2023-05-21T06:32:52;95421.94;;;17.18;100.00
11676;BME280;5894;42.768;23.404;2023-05-21T06:35:19;95420.97;;;17.27;100.00
11676;BME280;5894;42.768;23.404;2023-05-21T06:37:47;95428.72;;;17.32;100.00
11676;BME280;5894;42.768;23.404;2023-05-21T06:40:15;95416.78;;;17.10;100.00
11676;BME280;5894;42.768;23.404;2023-05-21T06:42:44;95440.38;;;17.43;100.00
11676;BME280;5894;42.768;23.404;2023-05-21T06:45:29;95410.81;;;17.32;100.00
11676;BME280;5894;42.768;23.404;2023-05-21T06:48:02;95438.88;;;17.61;100.00
11676;BME280;5894;42.768;23.404;2023-05-21T06:50:29;95433.78;;;17.72;100.00
11676;BME280;5894;42.768;23.404;2023-05-21T06:52:56;95429.72;;;17.78;100.00
11676;BME280;5894;42.768;23.404;2023-05-21T06:55:24;95432.13;;;17.83;100.00
11676;BME280;5894;42.768;23.404;2023-05-21T06:58:11;95438.38;;;17.90;100.00
11676;BME280;5894;42.768;23.404;2023-05-21T07:00:38;95437.59;;;17.90;100.00
11676;BME280;5894;42.768;23.404;2023-05-21T07:03:05;95434.38;;;18.00;100.00
11676;BME280;5894;42.768;23.404;2023-05-21T07:05:32;95433.66;;;18.03;99.48
11676;BME280;5894;42.768;23.404;2023-05-21T07:07:59;95431.81;;;18.07;100.00
11676;BME280;5894;42.768;23.404;2023-05-21T07:10:26;95427.75;;;18.13;96.55
11676;BME280;5894;42.768;23.404;2023-05-21T07:12:54;95432.41;;;18.16;98.67
11676;BME280;5894;42.768;23.404;2023-05-21T07:15:22;95431.13;;;18.29;95.67
11676;BME280;5894;42.768;23.404;2023-05-21T07:17:49;95424.22;;;18.48;96.67
11676;BME280;5894;42.768;23.404;2023-05-21T07:20:18;95420.50;;;18.75;93.70
11676;BME280;5894;42.768;23.404;2023-05-21T07:22:48;95420.16;;;18.99;95.80
11676;BME280;5894;42.768;23.404;2023-05-21T07:25:16;95426.63;;;19.25;89.83
11676;BME280;5894;42.768;23.404;2023-05-21T07:27:43;95430.13;;;19.52;83.87
11676;BME280;5894;42.768;23.404;2023-05-21T07:30:10;95420.84;;;19.72;84.96
11676;BME280;5894;42.768;23.404;2023-05-21T07:32:39;95416.91;;;19.92;83.79
11676;BME280;5894;42.768;23.404;2023-05-21T07:35:07;95426.66;;;20.11;85.17
11676;BME280;5894;42.768;23.404;2023-05-21T07:37:34;95414.53;;;20.21;75.92
11676;BME280;5894;42.768;23.404;2023-05-21T07:40:02;95417.31;;;20.31;75.84
11676;BME280;5894;42.768;23.404;2023-05-21T07:42:31;95360.81;;;20.03;77.18
11676;BME280;5894;42.768;23.404;2023-05-21T07:44:58;95413.19;;;20.37;74.89
11676;BME280;5894;42.768;23.404;2023-05-21T07:47:27;95427.28;;;20.31;75.67
11676;BME280;5894;42.768;23.404;2023-05-21T07:49:55;95431.72;;;20.20;74.58
11676;BME280;5894;42.768;23.404;2023-05-21T07:52:23;95426.69;;;20.14;76.50
11676;BME280;5894;42.768;23.404;2023-05-21T07:54:50;95419.59;;;19.96;75.74
11676;BME280;5894;42.768;23.404;2023-05-21T07:57:18;95421.47;;;19.92;74.17
11676;BME280;5894;42.768;23.404;2023-05-21T07:59:54;95412.94;;;19.83;74.92
11676;BME280;5894;42.768;23.404;2023-05-21T08:02:21;95420.09;;;19.75;73.01
11676;BME280;5894;42.768;23.404;2023-05-21T08:04:48;95421.22;;;19.74;72.44
11676;BME280;5894;42.768;23.404;2023-05-21T08:07:19;95413.59;;;19.72;72.30
11676;BME280;5894;42.768;23.404;2023-05-21T08:09:46;95414.03;;;19.78;73.68
11676;BME280;5894;42.768;23.404;2023-05-21T08:12:13;95420.22;;;19.86;68.69
11676;BME280;5894;42.768;23.404;2023-05-21T08:14:40;95416.50;;;19.94;72.19
11676;BME280;5894;42.768;23.404;2023-05-21T08:17:09;95428.38;;;19.93;70.63
11676;BME280;5894;42.768;23.404;2023-05-21T08:19:36;95414.25;;;19.96;74.65
11676;BME280;5894;42.768;23.404;2023-05-21T08:22:04;95416.16;;;19.95;70.31
11676;BME280;5894;42.768;23.404;2023-05-21T08:24:34;95423.00;;;19.93;72.88
11676;BME280;5894;42.768;23.404;2023-05-21T08:27:02;95415.06;;;20.00;75.60
11676;BME280;5894;42.768;23.404;2023-05-21T08:29:30;95419.00;;;20.09;76.40
11676;BME280;5894;42.768;23.404;2023-05-21T08:31:58;95427.19;;;20.24;70.21
11676;BME280;5894;42.768;23.404;2023-05-21T08:34:25;95419.78;;;20.43;70.79
11676;BME280;5894;42.768;23.404;2023-05-21T08:37:04;95414.59;;;20.61;64.96
11676;BME280;5894;42.768;23.404;2023-05-21T08:39:52;95409.75;;;20.74;65.21
11676;BME280;5894;42.768;23.404;2023-05-21T08:42:26;95414.44;;;20.87;63.24
11676;BME280;5894;42.768;23.404;2023-05-21T08:44:58;95406.91;;;21.04;68.06
11676;BME280;5894;42.768;23.404;2023-05-21T08:47:26;95413.25;;;21.26;65.14
11676;BME280;5894;42.768;23.404;2023-05-21T08:49:59;95409.53;;;21.44;63.18
11676;BME280;5894;42.768;23.404;2023-05-21T08:52:26;95412.28;;;21.58;63.71
11676;BME280;5894;42.768;23.404;2023-05-21T08:54:55;95393.09;;;21.53;59.61
11676;BME280;5894;42.768;23.404;2023-05-21T08:57:24;95385.41;;;21.48;56.78
11676;BME280;5894;42.768;23.404;2023-05-21T08:59:53;95401.63;;;21.69;61.02
11676;BME280;5894;42.768;23.404;2023-05-21T09:02:25;95401.66;;;21.76;61.99
11676;BME280;5894;42.768;23.404;2023-05-21T09:04:53;95401.31;;;21.88;61.36
11676;BME280;5894;42.768;23.404;2023-05-21T09:07:24;95377.88;;;21.78;59.23
11676;BME280;5894;42.768;23.404;2023-05-21T09:10:13;95405.22;;;22.02;60.09
11676;BME280;5894;42.768;23.404;2023-05-21T09:12:42;95405.25;;;22.12;59.83
11676;BME280;5894;42.768;23.404;2023-05-21T09:15:10;95403.38;;;22.16;54.54
11676;BME280;5894;42.768;23.404;2023-05-21T09:17:38;95396.47;;;22.22;58.74
11676;BME280;5894;42.768;23.404;2023-05-21T09:20:29;95399.53;;;22.10;55.26
11676;BME280;5894;42.768;23.404;2023-05-21T09:23:02;95394.91;;;22.07;58.74
11676;BME280;5894;42.768;23.404;2023-05-21T09:25:31;95394.88;;;22.00;61.17
11676;BME280;5894;42.768;23.404;2023-05-21T09:28:10;95405.16;;;21.91;59.55
11676;BME280;5894;42.768;23.404;2023-05-21T09:30:43;95393.63;;;21.83;62.15
11676;BME280;5894;42.768;23.404;2023-05-21T09:33:11;95382.84;;;21.73;63.49
11676;BME280;5894;42.768;23.404;2023-05-21T09:35:44;95399.38;;;21.85;66.37
11676;BME280;5894;42.768;23.404;2023-05-21T09:38:13;95391.34;;;21.92;67.71
11676;BME280;5894;42.768;23.404;2023-05-21T09:40:44;95394.47;;;21.98;64.54
11676;BME280;5894;42.768;23.404;2023-05-21T09:43:14;95397.13;;;21.94;64.19
11676;BME280;5894;42.768;23.404;2023-05-21T09:45:49;95381.84;;;21.99;64.10
11676;BME280;5894;42.768;23.404;2023-05-21T09:48:31;95371.47;;;22.01;62.29
11676;BME280;5894;42.768;23.404;2023-05-21T09:51:12;95378.78;;;22.00;63.01
11676;BME280;5894;42.768;23.404;2023-05-21T09:53:43;95373.81;;;22.09;61.40
11676;BME280;5894;42.768;23.404;2023-05-21T09:56:16;95370.38;;;22.16;61.35
11676;BME280;5894;42.768;23.404;2023-05-21T09:58:47;95378.06;;;22.21;62.29
11676;BME280;5894;42.768;23.404;2023-05-21T10:01:14;95372.69;;;22.21;62.98
11676;BME280;5894;42.768;23.404;2023-05-21T10:03:42;95369.56;;;22.05;62.55
11676;BME280;5894;42.768;23.404;2023-05-21T10:06:13;95370.72;;;22.07;61.31
11676;BME280;5894;42.768;23.404;2023-05-21T10:08:43;95368.81;;;22.15;61.32
11676;BME280;5894;42.768;23.404;2023-05-21T10:11:11;95318.09;;;21.88;60.90
11676;BME280;5894;42.768;23.404;2023-05-21T10:13:44;95360.00;;;22.14;57.42
11676;BME280;5894;42.768;23.404;2023-05-21T10:16:11;95368.47;;;22.20;59.57
11676;BME280;5894;42.768;23.404;2023-05-21T10:18:39;95318.06;;;21.81;60.65
11676;BME280;5894;42.768;23.404;2023-05-21T10:21:08;95346.56;;;22.11;59.46
11676;BME280;5894;42.768;23.404;2023-05-21T10:23:36;95358.84;;;22.15;61.17
11676;BME280;5894;42.768;23.404;2023-05-21T10:26:06;95258.59;;;21.65;61.91
11676;BME280;5894;42.768;23.404;2023-05-21T10:28:35;95349.69;;;22.34;61.24
11676;BME280;5894;42.768;23.404;2023-05-21T10:31:06;95346.25;;;22.41;62.14
11676;BME280;5894;42.768;23.404;2023-05-21T10:33:34;95352.00;;;22.39;61.98
11676;BME280;5894;42.768;23.404;2023-05-21T10:36:02;95362.00;;;22.49;64.31
11676;BME280;5894;42.768;23.404;2023-05-21T10:38:32;95297.47;;;22.14;58.89
11676;BME280;5894;42.768;23.404;2023-05-21T10:41:00;95341.63;;;22.30;62.11
11676;BME280;5894;42.768;23.404;2023-05-21T10:43:44;95355.84;;;22.38;59.77
11676;BME280;5894;42.768;23.404;2023-05-21T10:46:36;95344.34;;;22.41;61.81
11676;BME280;5894;42.768;23.404;2023-05-21T10:49:25;95344.72;;;22.54;62.56
11676;BME280;5894;42.768;23.404;2023-05-21T10:52:06;95309.38;;;22.55;62.72
11676;BME280;5894;42.768;23.404;2023-05-21T10:54:50;95362.78;;;22.60;58.33
11676;BME280;5894;42.768;23.404;2023-05-21T10:57:56;95338.94;;;22.55;61.08
11676;BME280;5894;42.768;23.404;2023-05-21T11:00:29;95347.78;;;22.45;56.74
11676;BME280;5894;42.768;23.404;2023-05-21T11:02:59;95318.50;;;21.90;59.57
11676;BME280;5894;42.768;23.404;2023-05-21T11:05:37;95344.66;;;22.11;57.29
11676;BME280;5894;42.768;23.404;2023-05-21T11:08:18;95332.28;;;21.89;57.71
11676;BME280;5894;42.768;23.404;2023-05-21T11:10:51;95341.88;;;21.93;57.03
11676;BME280;5894;42.768;23.404;2023-05-21T11:13:18;95340.41;;;22.00;57.49
11676;BME280;5894;42.768;23.404;2023-05-21T11:16:05;95337.66;;;21.92;55.61
11676;BME280;5894;42.768;23.404;2023-05-21T11:19:01;95328.81;;;21.85;56.45
11676;BME280;5894;42.768;23.404;2023-05-21T11:21:33;95338.03;;;21.87;58.67
11676;BME280;5894;42.768;23.404;2023-05-21T11:24:03;95337.59;;;21.75;59.63
11676;BME280;5894;42.768;23.404;2023-05-21T11:26:58;95335.66;;;21.65;59.73
11676;BME280;5894;42.768;23.404;2023-05-21T11:29:38;95323.69;;;21.51;56.64
11676;BME280;5894;42.768;23.404;2023-05-21T11:32:07;95329.03;;;21.44;59.88
11676;BME280;5894;42.768;23.404;2023-05-21T11:34:43;95327.53;;;21.50;63.57
11676;BME280;5894;42.768;23.404;2023-05-21T11:37:33;95339.91;;;21.76;59.41
11676;BME280;5894;42.768;23.404;2023-05-21T11:40:21;95320.78;;;21.88;57.36
11676;BME280;5894;42.768;23.404;2023-05-21T11:42:51;95323.81;;;21.83;56.89
11676;BME280;5894;42.768;23.404;2023-05-21T11:45:20;95271.53;;;21.42;59.17
11676;BME280;5894;42.768;23.404;2023-05-21T11:47:48;95321.88;;;21.80;61.11
11676;BME280;5894;42.768;23.404;2023-05-21T11:50:18;95316.53;;;21.80;62.18
11676;BME280;5894;42.768;23.404;2023-05-21T11:52:45;95323.84;;;21.80;63.75
11676;BME280;5894;42.768;23.404;2023-05-21T11:55:13;95325.75;;;21.79;63.47
11676;BME280;5894;42.768;23.404;2023-05-21T11:57:42;95298.44;;;21.59;61.48
11676;BME280;5894;42.768;23.404;2023-05-21T12:00:13;95316.88;;;21.68;59.70
11676;BME280;5894;42.768;23.404;2023-05-21T12:02:46;95311.09;;;21.63;63.19
11676;BME280;5894;42.768;23.404;2023-05-21T12:05:14;95317.66;;;21.69;63.62
11676;BME280;5894;42.768;23.404;2023-05-21T12:07:45;95311.94;;;21.77;65.05
11676;BME280;5894;42.768;23.404;2023-05-21T12:10:13;95307.34;;;21.85;66.25
11676;BME280;5894;42.768;23.404;2023-05-21T12:12:40;95313.88;;;21.91;63.79
11676;BME280;5894;42.768;23.404;2023-05-21T12:15:08;95302.41;;;22.01;65.57
11676;BME280;5894;42.768;23.404;2023-05-21T12:17:37;95300.53;;;22.16;68.60
11676;BME280;5894;42.768;23.404;2023-05-21T12:20:05;95308.22;;;22.21;66.86
11676;BME280;5894;42.768;23.404;2023-05-21T12:22:39;95307.47;;;22.20;64.50
11676;BME280;5894;42.768;23.404;2023-05-21T12:25:08;95301.69;;;22.15;63.91
11676;BME280;5894;42.768;23.404;2023-05-21T12:27:37;95303.63;;;22.18;66.21
11676;BME280;5894;42.768;23.404;2023-05-21T12:30:05;95294.00;;;22.17;63.93
11676;BME280;5894;42.768;23.404;2023-05-21T12:32:33;95308.59;;;22.23;63.68
11676;BME280;5894;42.768;23.404;2023-05-21T12:35:00;95299.03;;;22.29;62.75
11676;BME280;5894;42.768;23.404;2023-05-21T12:37:29;95292.09;;;22.10;61.18
11676;BME280;5894;42.768;23.404;2023-05-21T12:39:58;95151.94;;;21.23;62.24
11676;BME280;5894;42.768;23.404;2023-05-21T12:42:28;95237.56;;;21.92;63.89
11676;BME280;5894;42.768;23.404;2023-05-21T12:44:56;95287.50;;;22.43;63.28
11676;BME280;5894;42.768;23.404;2023-05-21T12:47:23;95252.59;;;22.46;62.74
11676;BME280;5894;42.768;23.404;2023-05-21T12:49:59;95278.69;;;22.81;60.72
11676;BME280;5894;42.768;23.404;2023-05-21T12:52:27;95277.91;;;22.91;57.58
11676;BME280;5894;42.768;23.404;2023-05-21T12:54:56;95271.38;;;22.92;53.11
11676;BME280;5894;42.768;23.404;2023-05-21T12:57:29;95274.06;;;22.99;55.16
11676;BME280;5894;42.768;23.404;2023-05-21T13:00:01;95272.50;;;22.95;57.82
11676;BME280;5894;42.768;23.404;2023-05-21T13:02:32;95277.53;;;22.79;61.87
11676;BME280;5894;42.768;23.404;2023-05-21T13:05:01;95276.00;;;22.53;62.76
11676;BME280;5894;42.768;23.404;2023-05-21T13:07:30;95288.69;;;22.42;61.78
11676;BME280;5894;42.768;23.404;2023-05-21T13:09:58;95304.78;;;22.20;60.44